Time;durP1;ratioP1;P1;durP2;ratioP2;P2;SDS_P1;SDS_P2;PMS_P1;PMS_P2;Temp;Humidity;BMP_temperature;BMP_pressure;BME280_temperature;BME280_humidity;BME280_pressure;Samples;Min_cycle;Max_cycle;Signal;HPM_P1;HPM_P2
2020/12/23 00:00:22;;;;;;;;;;;;;;;;;;5089688;28;20440;-87
2020/12/23 00:02:49;;;;;;;;;;;;;;;;;;5085011;28;20408;-86
2020/12/23 00:05:16;;;;;;;;;;;;;;;;;;5083882;28;21493;-87
2020/12/23 00:07:45;;;;;;;;;;;;;;;;;;5084258;28;20667;-87
2020/12/23 00:10:11;;;;;;;;;;;;;;;;;;5084418;28;20425;-87
2020/12/23 00:12:38;;;;;;;;;;;;;;;;;;5081249;28;20969;-88
2020/12/23 00:15:04;;;;;;;;;;;;;;;;;;5077506;28;25100;-87
2020/12/23 00:17:31;;;;;;;;;;;;;;;;;;5084600;28;25073;-86
2020/12/23 00:19:57;;;;;;;;;;;;;;;;;;5079101;28;28098;-86
2020/12/23 00:22:24;;;;;;;;;;;;;;;;;;5084849;28;25067;-86
2020/12/23 00:24:50;;;;;;;;;;;;;;;;;;5081249;28;25072;-87
2020/12/23 00:27:17;;;;;;;;;;;;;;;;;;5080692;28;25072;-86
2020/12/23 00:29:43;;;;;;;;;;;;;;;;;;5081135;28;25072;-86
2020/12/23 00:32:09;;;;;;;;;;;;;;;;;;5078230;28;25129;-85
2020/12/23 00:34:36;;;;;;;;;;;;;;;;;;5062840;28;25093;-88
2020/12/23 00:37:02;;;;;;;;;;;;;;;;;;5081067;28;26056;-86
2020/12/23 00:39:29;;;;;;;;;;;;;;;;;;5081552;28;25075;-87
2020/12/23 00:41:55;;;;;;;;;;;;;;;;;;5081343;28;25087;-85
2020/12/23 00:44:21;;;;;;;;;;;;;;;;;;5081982;28;20749;-85
2020/12/23 00:46:48;;;;;;;;;;;;;;;;;;5080440;28;25077;-87
2020/12/23 00:49:14;;;;;;;;;;;;;;;;;;5080454;28;25078;-84
2020/12/23 00:51:41;;;;;;;;;;;;;;;;;;5073771;28;25146;-85
2020/12/23 00:54:07;;;;;;;;;;;;;;;;;;5080195;28;20304;-86
2020/12/23 00:56:33;;;;;;;;;;;;;;;;;;5080149;28;25144;-84
2020/12/23 00:59:00;;;;;;;;;;;;;;;;;;5080300;28;20248;-85
2020/12/23 01:01:26;;;;;;;;;;;;;;;;;;5064497;28;20951;-85
2020/12/23 01:03:53;;;;;;;;;;;;;;;;;;5078534;28;20386;-87
2020/12/23 01:06:19;;;;;;;;;;;;;;;;;;5078670;28;20382;-86
2020/12/23 01:08:45;;;;;;;;;;;;;;;;;;5078067;28;20522;-86
2020/12/23 01:11:12;;;;;;;;;;;;;;;;;;5081174;28;20291;-87
2020/12/23 01:13:38;;;;;;;;;;;;;;;;;;5078140;28;20382;-87
2020/12/23 01:16:05;;;;;;;;;;;;;;;;;;5077801;28;20137;-87
2020/12/23 01:18:31;;;;;;;;;;;;;;;;;;5077542;28;20029;-89
2020/12/23 01:20:58;;;;;;;;;;;;;;;;;;5076392;28;20661;-85
2020/12/23 01:23:24;;;;;;;;;;;;;;;;;;5075864;28;20351;-87
2020/12/23 01:25:50;;;;;;;;;;;;;;;;;;5077755;28;20004;-89
2020/12/23 01:28:17;;;;;;;;;;;;;;;;;;5097673;28;19981;-88
2020/12/23 01:30:43;;;;;;;;;;;;;;;;;;5083782;28;20032;-90
2020/12/23 01:33:10;;;;;;;;;;;;;;;;;;5076736;28;20265;-89
2020/12/23 01:35:36;;;;;;;;;;;;;;;;;;5077950;28;25123;-90
2020/12/23 01:38:03;;;;;;;;;;;;;;;;;;5081664;28;20397;-90
2020/12/23 01:40:29;;;;;;;;;;;;;;;;;;5091500;28;25101;-91
2020/12/23 01:42:55;;;;;;;;;;;;;;;;;;5099632;28;25098;-89
2020/12/23 01:45:22;;;;;;;;;;;;;;;;;;5076938;28;25092;-89
2020/12/23 01:47:48;;;;;;;;;;;;;;;;;;5077117;28;25074;-89
2020/12/23 01:50:15;;;;;;;;;;;;;;;;;;5077156;28;20418;-88
2020/12/23 01:52:42;;;;;;;;;;;;;;;;;;5077206;28;25161;-89
2020/12/23 01:55:08;;;;;;;;;;;;;;;;;;5076491;28;25084;-87
2020/12/23 01:57:35;;;;;;;;;;;;;;;;;;5076575;28;24363;-90
2020/12/23 02:03:05;;;;;;;;;;;;;;;;;;5013007;28;20404;-90
2020/12/23 02:48:13;;;;;;;;;;;;;;;;;;5114897;22;20506;-87
2020/12/23 02:50:40;;;;;;;;;;;;;;;;;;5043786;28;20796;-87
2020/12/23 02:53:06;;;;;;;;;;;;;;;;;;5059849;28;20389;-87
2020/12/23 02:55:33;;;;;;;;;;;;;;;;;;5059837;28;20407;-88
2020/12/23 02:57:59;;;;;;;;;;;;;;;;;;5053241;28;20487;-87
2020/12/23 03:00:26;;;;;;;;;;;;;;;;;;5046313;28;20435;-88
2020/12/23 03:02:52;;;;;;;;;;;;;;;;;;5040648;28;20387;-88
2020/12/23 03:05:18;;;;;;;;;;;;;;;;;;5040340;28;20387;-88
2020/12/23 03:07:45;;;;;;;;;;;;;;;;;;5040803;28;20764;-87
2020/12/23 03:10:11;;;;;;;;;;;;;;;;;;5040706;28;20893;-89
2020/12/23 03:12:38;;;;;;;;;;;;;;;;;;5039210;28;20395;-88
2020/12/23 03:15:04;;;;;;;;;;;;;;;;;;5040235;28;20406;-88
2020/12/23 03:17:31;;;;;;;;;;;;;;;;;;5059312;28;20412;-88
2020/12/23 03:19:57;;;;;;;;;;;;;;;;;;5061882;28;20379;-88
2020/12/23 03:22:23;;;;;;;;;;;;;;;;;;5040814;28;20418;-87
2020/12/23 03:24:50;;;;;;;;;;;;;;;;;;5041087;28;20391;-88
2020/12/23 03:27:16;;;;;;;;;;;;;;;;;;5039912;28;20434;-88
2020/12/23 03:29:43;;;;;;;;;;;;;;;;;;5048274;28;20385;-88
2020/12/23 03:32:09;;;;;;;;;;;;;;;;;;5060233;28;20415;-88
2020/12/23 03:34:36;;;;;;;;;;;;;;;;;;5058226;28;20416;-88
2020/12/23 03:37:02;;;;;;;;;;;;;;;;;;5040924;28;21988;-88
2020/12/23 03:39:28;;;;;;;;;;;;;;;;;;5039522;28;20461;-88
2020/12/23 03:41:55;;;;;;;;;;;;;;;;;;5042569;28;20470;-88
2020/12/23 03:44:21;;;;;;;;;;;;;;;;;;5052980;28;20383;-88
2020/12/23 03:46:48;;;;;;;;;;;;;;;;;;5037947;28;20395;-88
2020/12/23 03:49:14;;;;;;;;;;;;;;;;;;5040079;28;20418;-88
2020/12/23 03:51:40;;;;;;;;;;;;;;;;;;5040544;28;20387;-88
2020/12/23 03:54:07;;;;;;;;;;;;;;;;;;5052148;28;20391;-87
2020/12/23 03:56:33;;;;;;;;;;;;;;;;;;5060625;28;20385;-87
2020/12/23 03:59:00;;;;;;;;;;;;;;;;;;5063201;28;20395;-86
2020/12/23 04:01:26;;;;;;;;;;;;;;;;;;5061107;28;20385;-87
2020/12/23 04:03:52;;;;;;;;;;;;;;;;;;5059910;28;20393;-88
2020/12/23 04:06:19;;;;;;;;;;;;;;;;;;5042986;28;20392;-87
2020/12/23 04:08:45;;;;;;;;;;;;;;;;;;5041320;28;20823;-89
2020/12/23 04:11:12;;;;;;;;;;;;;;;;;;5057265;28;20411;-87
2020/12/23 04:13:38;;;;;;;;;;;;;;;;;;5062251;28;20392;-88
2020/12/23 04:16:04;;;;;;;;;;;;;;;;;;5040061;28;20574;-88
2020/12/23 04:18:31;;;;;;;;;;;;;;;;;;5047968;28;20410;-88
2020/12/23 04:20:57;;;;;;;;;;;;;;;;;;5043492;28;20394;-88
2020/12/23 04:23:24;;;;;;;;;;;;;;;;;;5040752;28;20395;-88
2020/12/23 04:25:50;;;;;;;;;;;;;;;;;;5041574;28;20403;-88
2020/12/23 04:28:16;;;;;;;;;;;;;;;;;;5047197;28;20408;-88
2020/12/23 04:30:45;;;;;;;;;;;;;;;;;;5055328;28;20369;-87
2020/12/23 04:33:11;;;;;;;;;;;;;;;;;;5071347;28;20384;-88
2020/12/23 04:35:38;;;;;;;;;;;;;;;;;;5061299;28;20393;-87
2020/12/23 04:38:04;;;;;;;;;;;;;;;;;;5060161;28;20454;-87
2020/12/23 04:40:30;;;;;;;;;;;;;;;;;;5053712;28;20394;-88
2020/12/23 04:42:57;;;;;;;;;;;;;;;;;;5040905;28;20787;-88
2020/12/23 04:45:23;;;;;;;;;;;;;;;;;;5043176;28;20388;-87
2020/12/23 04:47:50;;;;;;;;;;;;;;;;;;5059881;28;20409;-89
2020/12/23 04:50:16;;;;;;;;;;;;;;;;;;5079451;28;20399;-86
2020/12/23 04:52:42;;;;;;;;;;;;;;;;;;5059271;28;20384;-88
2020/12/23 04:55:09;;;;;;;;;;;;;;;;;;5047888;28;20894;-88
2020/12/23 04:57:36;;;;;;;;;;;;;;;;;;5068772;28;20415;-89
2020/12/23 05:00:02;;;;;;;;;;;;;;;;;;5067080;28;20385;-88
2020/12/23 05:02:28;;;;;;;;;;;;;;;;;;5062902;28;20390;-88
2020/12/23 05:04:55;;;;;;;;;;;;;;;;;;5055093;28;20396;-88
2020/12/23 05:07:21;;;;;;;;;;;;;;;;;;5053449;28;20411;-88
2020/12/23 05:09:48;;;;;;;;;;;;;;;;;;5053507;28;20401;-87
2020/12/23 05:12:14;;;;;;;;;;;;;;;;;;5053632;28;20395;-86
2020/12/23 05:14:41;;;;;;;;;;;;;;;;;;5053011;28;20395;-87
2020/12/23 05:17:09;;;;;;;;;;;;;;;;;;5053171;28;20426;-86
2020/12/23 05:19:35;;;;;;;;;;;;;;;;;;5077438;28;20420;-87
2020/12/23 05:22:02;;;;;;;;;;;;;;;;;;5075911;28;20381;-87
2020/12/23 05:24:28;;;;;;;;;;;;;;;;;;5055849;28;20403;-86
2020/12/23 05:26:54;;;;;;;;;;;;;;;;;;5053970;28;20407;-87
2020/12/23 05:29:21;;;;;;;;;;;;;;;;;;5073015;28;20377;-88
2020/12/23 05:31:47;;;;;;;;;;;;;;;;;;5077612;28;20463;-88
2020/12/23 05:34:14;;;;;;;;;;;;;;;;;;5077068;28;20400;-87
2020/12/23 05:36:41;;;;;;;;;;;;;;;;;;5070630;28;20390;-86
2020/12/23 05:39:07;;;;;;;;;;;;;;;;;;5059541;28;20407;-85
2020/12/23 05:41:34;;;;;;;;;;;;;;;;;;5070965;28;20411;-87
2020/12/23 05:44:00;;;;;;;;;;;;;;;;;;5062053;28;20367;-88
2020/12/23 05:46:27;;;;;;;;;;;;;;;;;;5059265;28;20380;-86
2020/12/23 05:48:53;;;;;;;;;;;;;;;;;;5074417;28;20419;-87
2020/12/23 05:51:19;;;;;;;;;;;;;;;;;;5077684;28;20399;-87
2020/12/23 05:53:46;;;;;;;;;;;;;;;;;;5065510;28;20375;-87
2020/12/23 05:56:12;;;;;;;;;;;;;;;;;;5054221;28;20387;-86
2020/12/23 05:58:38;;;;;;;;;;;;;;;;;;5052002;28;20431;-86
2020/12/23 06:01:05;;;;;;;;;;;;;;;;;;5051224;28;20402;-87
2020/12/23 06:03:31;;;;;;;;;;;;;;;;;;5056447;28;20374;-88
2020/12/23 06:05:58;;;;;;;;;;;;;;;;;;5056836;28;20402;-88
2020/12/23 06:08:25;;;;;;;;;;;;;;;;;;5054619;28;20418;-89
2020/12/23 06:10:52;;;;;;;;;;;;;;;;;;5055676;28;20387;-88
2020/12/23 06:13:18;;;;;;;;;;;;;;;;;;5056939;28;20391;-90
2020/12/23 06:15:45;;;;;;;;;;;;;;;;;;5057161;28;20402;-89
2020/12/23 06:18:11;;;;;;;;;;;;;;;;;;5055649;28;20466;-88
2020/12/23 06:20:38;;;;;;;;;;;;;;;;;;5054553;28;20454;-88
2020/12/23 06:23:04;;;;;;;;;;;;;;;;;;5057064;28;20395;-88
2020/12/23 06:25:31;;;;;;;;;;;;;;;;;;5057127;28;20443;-88
2020/12/23 06:27:57;;;;;;;;;;;;;;;;;;5057792;28;20434;-88
2020/12/23 06:30:23;;;;;;;;;;;;;;;;;;5057144;28;20381;-87
2020/12/23 06:32:50;;;;;;;;;;;;;;;;;;5055607;28;20381;-88
2020/12/23 06:35:16;;;;;;;;;;;;;;;;;;5055442;28;20386;-88
2020/12/23 06:37:43;;;;;;;;;;;;;;;;;;5053635;28;20422;-88
2020/12/23 06:40:09;;;;;;;;;;;;;;;;;;5055408;28;20409;-88
2020/12/23 06:42:36;;;;;;;;;;;;;;;;;;5053592;28;20835;-88
2020/12/23 06:45:03;;;;;;;;;;;;;;;;;;5051185;28;20399;-87
2020/12/23 06:47:29;;;;;;;;;;;;;;;;;;5065769;28;20412;-87
2020/12/23 06:49:56;;;;;;;;;;;;;;;;;;5055571;28;20389;-88
2020/12/23 06:52:22;;;;;;;;;;;;;;;;;;5056273;28;20384;-88
2020/12/23 06:54:48;;;;;;;;;;;;;;;;;;5042871;28;20393;-88
2020/12/23 06:57:15;;;;;;;;;;;;;;;;;;5036302;28;20423;-88
2020/12/23 06:59:41;;;;;;;;;;;;;;;;;;5036027;28;20411;-88
2020/12/23 07:02:08;;;;;;;;;;;;;;;;;;5036503;28;20418;-87
2020/12/23 07:04:34;;;;;;;;;;;;;;;;;;5036449;28;20406;-88
2020/12/23 07:07:00;;;;;;;;;;;;;;;;;;5063881;28;20408;-88
2020/12/23 07:09:27;;;;;;;;;;;;;;;;;;5069339;28;20389;-88
2020/12/23 07:11:53;;;;;;;;;;;;;;;;;;5070122;28;20388;-87
2020/12/23 07:14:20;;;;;;;;;;;;;;;;;;5075130;28;20405;-86
2020/12/23 07:16:46;;;;;;;;;;;;;;;;;;5074586;28;20396;-87
2020/12/23 07:19:13;;;;;;;;;;;;;;;;;;5074503;28;20415;-87
2020/12/23 07:21:39;;;;;;;;;;;;;;;;;;5070346;28;20392;-89
2020/12/23 07:24:05;;;;;;;;;;;;;;;;;;5069458;28;20828;-89
2020/12/23 07:26:32;;;;;;;;;;;;;;;;;;5070293;28;20396;-89
2020/12/23 07:28:58;;;;;;;;;;;;;;;;;;5048619;28;20401;-88
2020/12/23 07:31:25;;;;;;;;;;;;;;;;;;5047479;28;20391;-87
2020/12/23 07:33:51;;;;;;;;;;;;;;;;;;5051674;28;20399;-88
2020/12/23 07:36:17;;;;;;;;;;;;;;;;;;5054038;28;20383;-88
2020/12/23 07:38:44;;;;;;;;;;;;;;;;;;5055820;28;20415;-88
2020/12/23 07:41:11;;;;;;;;;;;;;;;;;;5054567;28;20393;-86
2020/12/23 07:43:37;;;;;;;;;;;;;;;;;;5048822;28;20391;-87
2020/12/23 07:46:03;;;;;;;;;;;;;;;;;;5053265;28;20403;-87
2020/12/23 07:48:30;;;;;;;;;;;;;;;;;;5052987;28;20482;-87
2020/12/23 07:50:56;;;;;;;;;;;;;;;;;;5050964;28;20417;-87
2020/12/23 07:53:23;;;;;;;;;;;;;;;;;;5050218;28;20430;-87
2020/12/23 07:55:49;;;;;;;;;;;;;;;;;;5049888;28;20387;-88
2020/12/23 07:58:16;;;;;;;;;;;;;;;;;;5050070;28;20422;-88
2020/12/23 08:00:44;;;;;;;;;;;;;;;;;;5049131;28;20426;-88
2020/12/23 08:03:10;;;;;;;;;;;;;;;;;;5047370;28;20398;-87
2020/12/23 08:05:36;;;;;;;;;;;;;;;;;;5055397;28;20398;-88
2020/12/23 08:08:03;;;;;;;;;;;;;;;;;;5048436;28;20418;-87
2020/12/23 08:10:29;;;;;;;;;;;;;;;;;;5047610;28;20388;-87
2020/12/23 08:12:56;;;;;;;;;;;;;;;;;;5048628;28;20388;-87
2020/12/23 08:15:22;;;;;;;;;;;;;;;;;;5049478;28;20439;-86
2020/12/23 08:17:49;;;;;;;;;;;;;;;;;;5058940;28;20408;-87
2020/12/23 08:20:15;;;;;;;;;;;;;;;;;;5051280;28;20475;-84
2020/12/23 08:22:41;;;;;;;;;;;;;;;;;;5043796;28;20795;-86
2020/12/23 08:25:08;;;;;;;;;;;;;;;;;;5038726;28;20395;-86
2020/12/23 08:27:34;;;;;;;;;;;;;;;;;;5038589;28;20791;-86
2020/12/23 08:30:00;;;;;;;;;;;;;;;;;;5049670;28;20385;-85
2020/12/23 08:32:27;;;;;;;;;;;;;;;;;;5038387;28;20859;-84
2020/12/23 08:34:53;;;;;;;;;;;;;;;;;;5057564;28;20385;-83
2020/12/23 08:37:20;;;;;;;;;;;;;;;;;;5045478;28;20412;-84
2020/12/23 08:39:46;;;;;;;;;;;;;;;;;;5046011;28;20404;-85
2020/12/23 08:42:18;;;;;;;;;;;;;;;;;;5062007;28;20403;-83
2020/12/23 08:44:45;;;;;;;;;;;;;;;;;;5063719;28;20817;-85
2020/12/23 08:47:11;;;;;;;;;;;;;;;;;;5046793;28;20411;-86
2020/12/23 08:49:37;;;;;;;;;;;;;;;;;;5043137;28;20442;-85
2020/12/23 08:52:05;;;;;;;;;;;;;;;;;;5041880;28;20395;-84
2020/12/23 08:54:32;;;;;;;;;;;;;;;;;;5052676;28;20388;-84
2020/12/23 08:56:58;;;;;;;;;;;;;;;;;;5058429;28;20404;-84
2020/12/23 08:59:24;;;;;;;;;;;;;;;;;;5058917;28;20416;-84
2020/12/23 09:01:51;;;;;;;;;;;;;;;;;;5058166;28;20731;-84
2020/12/23 09:04:19;;;;;;;;;;;;;;;;;;5042330;28;20383;-84
2020/12/23 09:06:47;;;;;;;;;;;;;;;;;;5043514;28;20377;-87
2020/12/23 09:15:01;;;;;;;;;;;;;;;;;;5079055;28;20399;-87
2020/12/23 09:20:17;;;;;;;;;;;;;;;;;;5071821;28;20882;-86
2020/12/23 09:22:44;;;;;;;;;;;;;;;;;;5072735;28;20396;-86
2020/12/23 09:25:10;;;;;;;;;;;;;;;;;;5066755;28;20393;-88
2020/12/23 09:27:39;;;;;;;;;;;;;;;;;;5065089;28;20412;-88
2020/12/23 09:30:06;;;;;;;;;;;;;;;;;;5051633;28;20395;-86
2020/12/23 09:32:32;;;;;;;;;;;;;;;;;;5048022;28;20391;-89
2020/12/23 09:35:00;;;;;;;;;;;;;;;;;;5050723;28;20840;-88
2020/12/23 09:37:27;;;;;;;;;;;;;;;;;;5048756;28;20625;-88
2020/12/23 09:39:54;;;;;;;;;;;;;;;;;;5054183;28;20415;-88
2020/12/23 09:42:20;;;;;;;;;;;;;;;;;;5049596;28;20397;-88
2020/12/23 09:44:47;;;;;;;;;;;;;;;;;;5067158;28;20404;-88
2020/12/23 09:47:13;;;;;;;;;;;;;;;;;;5070990;28;20442;-87
2020/12/23 09:49:40;;;;;;;;;;;;;;;;;;5074199;28;20447;-87
2020/12/23 09:52:11;;;;;;;;;;;;;;;;;;5076209;28;20388;-88
2020/12/23 09:54:39;;;;;;;;;;;;;;;;;;5068286;28;20780;-87
2020/12/23 09:57:05;;;;;;;;;;;;;;;;;;5065660;28;20419;-87
2020/12/23 09:59:35;;;;;;;;;;;;;;;;;;5049002;28;20493;-87
2020/12/23 10:02:01;;;;;;;;;;;;;;;;;;5054951;28;20403;-85
2020/12/23 10:04:28;;;;;;;;;;;;;;;;;;5045282;28;20436;-86
2020/12/23 10:12:34;;;;;;;;;;;;;;;;;;4956614;28;20918;-86
2020/12/23 10:15:02;;;;;;;;;;;;;;;;;;4937460;29;20410;-88
2020/12/23 10:17:28;;;;;;;;;;;;;;;;;;4937813;29;20543;-88
2020/12/23 10:19:55;;;;;;;;;;;;;;;;;;4944330;29;20464;-88
2020/12/23 10:22:21;;;;;;;;;;;;;;;;;;4949074;28;20403;-88
2020/12/23 10:24:48;;;;;;;;;;;;;;;;;;4937798;29;20397;-88
2020/12/23 10:27:14;;;;;;;;;;;;;;;;;;4937292;29;20427;-88
2020/12/23 10:29:41;;;;;;;;;;;;;;;;;;4939188;29;20457;-87
2020/12/23 10:32:07;;;;;;;;;;;;;;;;;;4937364;29;20437;-88
2020/12/23 10:34:33;;;;;;;;;;;;;;;;;;4945606;29;20413;-86
2020/12/23 10:37:01;;;;;;;;;;;;;;;;;;4937003;29;20483;-86
2020/12/23 10:39:27;;;;;;;;;;;;;;;;;;4938996;29;20428;-86
2020/12/23 10:41:54;;;;;;;;;;;;;;;;;;4996316;28;20407;-87
2020/12/23 10:44:21;;;;;;;;;;;;;;;;;;5050476;28;20404;-88
2020/12/23 10:46:47;;;;;;;;;;;;;;;;;;5074266;28;20407;-87
2020/12/23 10:51:55;;;;;;;;;;;;;;;;;;5059738;28;20402;-89
2020/12/23 10:54:22;;;;;;;;;;;;;;;;;;5049324;28;20381;-88
2020/12/23 10:56:48;;;;;;;;;;;;;;;;;;5060408;28;20758;-87
2020/12/23 10:59:15;;;;;;;;;;;;;;;;;;5066043;28;20416;-88
2020/12/23 11:01:41;;;;;;;;;;;;;;;;;;5067699;28;20383;-88
2020/12/23 11:04:07;;;;;;;;;;;;;;;;;;5070197;28;20368;-88
2020/12/23 11:06:34;;;;;;;;;;;;;;;;;;5073159;28;20388;-88
2020/12/23 11:09:00;;;;;;;;;;;;;;;;;;5073687;28;20391;-86
2020/12/23 11:11:27;;;;;;;;;;;;;;;;;;5067181;28;20411;-88
2020/12/23 11:13:53;;;;;;;;;;;;;;;;;;5054481;28;20382;-87
2020/12/23 11:16:21;;;;;;;;;;;;;;;;;;5053591;28;20426;-88
2020/12/23 11:18:47;;;;;;;;;;;;;;;;;;5056362;28;20415;-88
2020/12/23 11:21:13;;;;;;;;;;;;;;;;;;5058628;28;20395;-88
2020/12/23 11:23:40;;;;;;;;;;;;;;;;;;5075845;28;20391;-88
2020/12/23 11:26:06;;;;;;;;;;;;;;;;;;5071729;28;20372;-87
2020/12/23 11:28:33;;;;;;;;;;;;;;;;;;5079346;28;20404;-88
2020/12/23 11:31:00;;;;;;;;;;;;;;;;;;5076997;28;20922;-88
2020/12/23 11:33:26;;;;;;;;;;;;;;;;;;5077124;28;20451;-89
2020/12/23 11:35:52;;;;;;;;;;;;;;;;;;5076094;28;20403;-90
2020/12/23 11:38:19;;;;;;;;;;;;;;;;;;5077215;28;20408;-89
2020/12/23 11:40:45;;;;;;;;;;;;;;;;;;5072794;28;20392;-88
2020/12/23 11:43:12;;;;;;;;;;;;;;;;;;5072614;28;20396;-88
2020/12/23 11:45:38;;;;;;;;;;;;;;;;;;5075598;28;20386;-89
2020/12/23 11:48:04;;;;;;;;;;;;;;;;;;5073904;28;20423;-87
2020/12/23 11:50:31;;;;;;;;;;;;;;;;;;5076552;28;20392;-87
2020/12/23 11:52:57;;;;;;;;;;;;;;;;;;5070853;28;20403;-87
2020/12/23 11:55:24;;;;;;;;;;;;;;;;;;5072389;28;20406;-87
2020/12/23 11:57:50;;;;;;;;;;;;;;;;;;5073897;28;20396;-87
2020/12/23 12:00:17;;;;;;;;;;;;;;;;;;5072111;28;20391;-87
2020/12/23 12:02:43;;;;;;;;;;;;;;;;;;5069562;28;20733;-90
2020/12/23 12:05:10;;;;;;;;;;;;;;;;;;5061991;28;20390;-89
2020/12/23 12:07:36;;;;;;;;;;;;;;;;;;5056995;28;20419;-88
2020/12/23 12:10:03;;;;;;;;;;;;;;;;;;5051896;28;20394;-87
2020/12/23 12:12:29;;;;;;;;;;;;;;;;;;5053650;28;20384;-88
2020/12/23 12:14:55;;;;;;;;;;;;;;;;;;5055049;28;20386;-87
2020/12/23 12:17:22;;;;;;;;;;;;;;;;;;5053146;28;20455;-87
2020/12/23 12:19:48;;;;;;;;;;;;;;;;;;5058316;28;20412;-87
2020/12/23 12:22:16;;;;;;;;;;;;;;;;;;5038894;28;20724;-86
2020/12/23 12:24:42;;;;;;;;;;;;;;;;;;5039592;28;20454;-86
2020/12/23 12:27:09;;;;;;;;;;;;;;;;;;5045270;28;20417;-85
2020/12/23 12:29:35;;;;;;;;;;;;;;;;;;5046518;28;20382;-85
2020/12/23 12:32:02;;;;;;;;;;;;;;;;;;5057705;28;20841;-88
2020/12/23 12:34:28;;;;;;;;;;;;;;;;;;5042327;28;20844;-85
2020/12/23 12:36:55;;;;;;;;;;;;;;;;;;5055256;28;20443;-87
2020/12/23 12:39:21;;;;;;;;;;;;;;;;;;5046924;28;20411;-87
2020/12/23 12:41:48;;;;;;;;;;;;;;;;;;5042494;28;20395;-86
2020/12/23 12:44:14;;;;;;;;;;;;;;;;;;5043459;28;20392;-87
2020/12/23 12:46:40;;;;;;;;;;;;;;;;;;5047325;28;20383;-87
2020/12/23 12:49:07;;;;;;;;;;;;;;;;;;5052326;28;20411;-87
2020/12/23 12:51:33;;;;;;;;;;;;;;;;;;5045444;28;20391;-85
2020/12/23 12:54:00;;;;;;;;;;;;;;;;;;5048184;28;20833;-87
2020/12/23 12:56:26;;;;;;;;;;;;;;;;;;5037933;28;20400;-87
2020/12/23 12:58:54;;;;;;;;;;;;;;;;;;5046185;28;20768;-88
2020/12/23 13:01:21;;;;;;;;;;;;;;;;;;5038923;28;20425;-86
2020/12/23 13:03:47;;;;;;;;;;;;;;;;;;5054361;28;20454;-87
2020/12/23 13:06:13;;;;;;;;;;;;;;;;;;5057828;28;20399;-86
2020/12/23 13:08:40;;;;;;;;;;;;;;;;;;5058698;28;20875;-86
2020/12/23 13:11:06;;;;;;;;;;;;;;;;;;5050834;28;20388;-86
2020/12/23 13:13:32;;;;;;;;;;;;;;;;;;5055827;28;20855;-87
2020/12/23 13:15:59;;;;;;;;;;;;;;;;;;5058986;28;20400;-87
2020/12/23 13:18:25;;;;;;;;;;;;;;;;;;5060040;28;20427;-88
2020/12/23 13:20:52;;;;;;;;;;;;;;;;;;5056538;28;21133;-88
2020/12/23 13:23:18;;;;;;;;;;;;;;;;;;5040844;28;20732;-89
2020/12/23 13:25:45;;;;;;;;;;;;;;;;;;5044738;28;25078;-88
2020/12/23 13:28:11;;;;;;;;;;;;;;;;;;5044210;28;20778;-88
2020/12/23 13:30:37;;;;;;;;;;;;;;;;;;5065996;28;20399;-87
2020/12/23 13:33:04;;;;;;;;;;;;;;;;;;5040606;28;20394;-87
2020/12/23 13:35:30;;;;;;;;;;;;;;;;;;5057350;28;20433;-86
2020/12/23 13:37:59;;;;;;;;;;;;;;;;;;5069764;28;20408;-87
2020/12/23 13:40:26;;;;;;;;;;;;;;;;;;5067124;28;20372;-89
2020/12/23 13:42:52;;;;;;;;;;;;;;;;;;5048774;28;20314;-87
2020/12/23 13:45:19;;;;;;;;;;;;;;;;;;5053146;28;20380;-89
2020/12/23 13:47:45;;;;;;;;;;;;;;;;;;5069415;28;20510;-89
2020/12/23 13:50:11;;;;;;;;;;;;;;;;;;5066629;28;20613;-88
2020/12/23 13:52:38;;;;;;;;;;;;;;;;;;5056145;28;20293;-88
2020/12/23 13:55:07;;;;;;;;;;;;;;;;;;5054967;28;20399;-88
2020/12/23 13:57:34;;;;;;;;;;;;;;;;;;5048721;28;20419;-87
2020/12/23 14:00:00;;;;;;;;;;;;;;;;;;5054912;28;25074;-88
2020/12/23 14:02:27;;;;;;;;;;;;;;;;;;5050651;28;20327;-88
2020/12/23 14:04:53;;;;;;;;;;;;;;;;;;5052643;28;20388;-88
2020/12/23 14:07:19;;;;;;;;;;;;;;;;;;5042570;28;20400;-88
2020/12/23 14:09:46;;;;;;;;;;;;;;;;;;5039286;28;20390;-88
2020/12/23 14:12:12;;;;;;;;;;;;;;;;;;5049672;28;20891;-88
2020/12/23 14:14:39;;;;;;;;;;;;;;;;;;5043775;28;20387;-87
2020/12/23 14:17:05;;;;;;;;;;;;;;;;;;5055921;28;20408;-88
2020/12/23 14:19:32;;;;;;;;;;;;;;;;;;5045063;28;20286;-88
2020/12/23 14:21:58;;;;;;;;;;;;;;;;;;5055362;28;20388;-89
2020/12/23 14:24:25;;;;;;;;;;;;;;;;;;5052872;28;20473;-88
2020/12/23 14:26:51;;;;;;;;;;;;;;;;;;5046520;28;20360;-88
2020/12/23 14:29:17;;;;;;;;;;;;;;;;;;5054411;28;20414;-87
2020/12/23 14:31:44;;;;;;;;;;;;;;;;;;5049852;28;20574;-86
2020/12/23 14:34:10;;;;;;;;;;;;;;;;;;5053121;28;20877;-87
2020/12/23 14:36:37;;;;;;;;;;;;;;;;;;5047261;28;20649;-88
2020/12/23 14:39:03;;;;;;;;;;;;;;;;;;5052193;28;20445;-87
2020/12/23 14:41:30;;;;;;;;;;;;;;;;;;5054882;28;20386;-87
2020/12/23 14:43:56;;;;;;;;;;;;;;;;;;5051060;28;20395;-88
2020/12/23 14:46:23;;;;;;;;;;;;;;;;;;5056753;28;20406;-88
2020/12/23 14:48:49;;;;;;;;;;;;;;;;;;5049222;28;20406;-88
2020/12/23 14:51:17;;;;;;;;;;;;;;;;;;5036711;28;20455;-88
2020/12/23 14:53:46;;;;;;;;;;;;;;;;;;5041322;28;20401;-89
2020/12/23 14:56:15;;;;;;;;;;;;;;;;;;5047985;28;20387;-87
2020/12/23 14:58:41;;;;;;;;;;;;;;;;;;5056049;28;20383;-86
2020/12/23 15:01:10;;;;;;;;;;;;;;;;;;5041983;28;20384;-87
2020/12/23 15:03:37;;;;;;;;;;;;;;;;;;5050623;28;20457;-87
2020/12/23 15:06:04;;;;;;;;;;;;;;;;;;5055396;28;20399;-88
2020/12/23 15:08:30;;;;;;;;;;;;;;;;;;5055676;28;20794;-87
2020/12/23 15:10:57;;;;;;;;;;;;;;;;;;5051514;28;20383;-87
2020/12/23 15:13:24;;;;;;;;;;;;;;;;;;5060906;28;20454;-87
2020/12/23 15:15:50;;;;;;;;;;;;;;;;;;5057837;28;20895;-86
2020/12/23 15:18:17;;;;;;;;;;;;;;;;;;5054029;28;20408;-86
2020/12/23 15:20:43;;;;;;;;;;;;;;;;;;5045838;28;20381;-87
2020/12/23 15:23:10;;;;;;;;;;;;;;;;;;5054957;28;20475;-87
2020/12/23 15:25:36;;;;;;;;;;;;;;;;;;5056220;28;20862;-91
2020/12/23 15:28:03;;;;;;;;;;;;;;;;;;5057194;28;20422;-89
2020/12/23 15:30:29;;;;;;;;;;;;;;;;;;5050452;28;20866;-90
2020/12/23 15:32:57;;;;;;;;;;;;;;;;;;5049569;28;20477;-92
2020/12/23 15:35:23;;;;;;;;;;;;;;;;;;5056770;28;20502;-93
2020/12/23 15:38:00;;;;;;;;;;;;;;;;;;;;;
2020/12/23 15:40:27;;;;;;;;;;;;;;;;;;5071821;28;20384;-91
2020/12/23 15:42:53;;;;;;;;;;;;;;;;;;5048466;28;20953;-91
2020/12/23 15:45:20;;;;;;;;;;;;;;;;;;5045494;28;20393;-89
2020/12/23 15:47:46;;;;;;;;;;;;;;;;;;5054146;28;20412;-90
2020/12/23 15:50:16;;;;;;;;;;;;;;;;;;5054734;28;20387;-89
2020/12/23 15:55:33;;;;;;;;;;;;;;;;;;5060595;28;20363;-89
2020/12/23 15:58:00;;;;;;;;;;;;;;;;;;5060232;28;20487;-90
2020/12/23 16:00:52;;;;;;;;;;;;;;;;;;5060230;28;20403;-90
2020/12/23 16:06:03;;;;;;;;;;;;;;;;;;5061504;28;20402;-93
2020/12/23 16:08:29;;;;;;;;;;;;;;;;;;5073087;28;20415;-91
2020/12/23 16:44:47;;;;;;;;;;;;;;;;;;5057473;28;20392;-88
2020/12/23 16:47:13;;;;;;;;;;;;;;;;;;5059630;28;20916;-88
2020/12/23 16:49:40;;;;;;;;;;;;;;;;;;5061237;28;20849;-88
2020/12/23 16:52:06;;;;;;;;;;;;;;;;;;5060216;28;20392;-88
2020/12/23 16:54:32;;;;;;;;;;;;;;;;;;5058720;28;20481;-88
2020/12/23 16:56:59;;;;;;;;;;;;;;;;;;5058212;28;20412;-88
2020/12/23 16:59:25;;;;;;;;;;;;;;;;;;5059728;28;20885;-88
2020/12/23 17:01:52;;;;;;;;;;;;;;;;;;5060292;28;20757;-88
2020/12/23 17:04:20;;;;;;;;;;;;;;;;;;5064368;28;20393;-87
2020/12/23 17:06:46;;;;;;;;;;;;;;;;;;5060730;28;20384;-87
2020/12/23 17:09:13;;;;;;;;;;;;;;;;;;5058172;28;20400;-87
2020/12/23 17:11:39;;;;;;;;;;;;;;;;;;5050421;28;20388;-87
2020/12/23 17:14:06;;;;;;;;;;;;;;;;;;5060793;28;20389;-88
2020/12/23 17:16:32;;;;;;;;;;;;;;;;;;5059817;28;20415;-87
2020/12/23 17:18:59;;;;;;;;;;;;;;;;;;5059680;28;20415;-88
2020/12/23 17:21:25;;;;;;;;;;;;;;;;;;5059591;28;20391;-88
2020/12/23 17:23:51;;;;;;;;;;;;;;;;;;5061369;28;20384;-88
2020/12/23 17:26:18;;;;;;;;;;;;;;;;;;5059612;28;20381;-87
2020/12/23 17:28:44;;;;;;;;;;;;;;;;;;5061663;28;20430;-87
2020/12/23 17:31:11;;;;;;;;;;;;;;;;;;5063579;28;20479;-87
2020/12/23 17:33:37;;;;;;;;;;;;;;;;;;5059656;28;20381;-88
2020/12/23 17:36:04;;;;;;;;;;;;;;;;;;5061310;28;20430;-88
2020/12/23 17:38:30;;;;;;;;;;;;;;;;;;5062271;28;20411;-87
2020/12/23 17:41:01;;;;;;;;;;;;;;;;;;5059700;28;20384;-88
2020/12/23 17:49:10;;;;;;;;;;;;;;;;;;4998433;28;20404;-88
2020/12/23 17:57:33;;;;;;;;;;;;;;;;;;4983035;28;20775;-88
2020/12/23 18:08:35;;;;;;;;;;;;;;;;;;4960689;28;20425;-88
2020/12/23 18:13:58;;;;;;;;;;;;;;;;;;4924645;29;20469;-88
2020/12/23 18:22:09;;;;;;;;;;;;;;;;;;;;;
2020/12/23 18:24:41;;;;;;;;;;;;;;;;;;4865136;29;20431;-90
2020/12/23 18:29:48;;;;;;;;;;;;;;;;;;5015935;28;20380;-91
2020/12/23 18:32:15;;;;;;;;;;;;;;;;;;5054770;28;20402;-90
2020/12/23 18:34:46;;;;;;;;;;;;;;;;;;5056542;28;20402;-91
2020/12/23 18:37:13;;;;;;;;;;;;;;;;;;5057919;28;20474;-90
2020/12/23 18:39:44;;;;;;;;;;;;;;;;;;5057598;28;20405;-90
2020/12/23 18:42:10;;;;;;;;;;;;;;;;;;5058338;28;20394;-90
2020/12/23 18:44:37;;;;;;;;;;;;;;;;;;5044216;28;20418;-91
2020/12/23 18:47:08;;;;;;;;;;;;;;;;;;5049540;28;20438;-91
2020/12/23 18:49:35;;;;;;;;;;;;;;;;;;5057827;28;20444;-91
2020/12/23 18:52:01;;;;;;;;;;;;;;;;;;5057985;28;20380;-94
2020/12/23 18:54:28;;;;;;;;;;;;;;;;;;5057943;28;20399;-91